Sugar Ridge, Indiana
Current Conditions -  °F | °C
As of 7:53 AM on Sunday 21 Dec 2014 (Local Time) from KHUF Reporting Station
Haze Haze  
Wind Chill: 19°   Ceiling: Unl
Heat Index: 26°   Visibility: 6mi
Dew Point: 22°   Wind: 6mph
Humidity: 84%   Direction: 130°SE
Pressure: 30.29"   Gusts: NA
Location:  39.3787°N, 87.0992°W
Report Text: KHUF 211253Z 13005KT 6SM BR FEW026 M03/M06 A3029 RMK AO2 SLP263 T10331056
Loading
Personal Weather Stations






























Interactive Weather Map New forecast layout! Learn more

10-Day Weather Forecast

Advertisements
Track Severe Weather on mobile